Tafi Viejo, Argentina
Current Conditions -  °F | °C
As of 7:00 PM on Monday 26 Jan 2015 (Local Time) from SANT Reporting Station
Scattered Clouds Scattered Clouds  
Wind Chill: 90°   Ceiling: Unl
Heat Index: 98°   Visibility: 6mi
Dew Point: 73°   Wind: 0mph
Humidity: 59%   Direction: NA
Pressure: 29.62"   Gusts: NA
Location:  26.73°S, 65.27°W
Report Text: SANT 262200Z 00000KT 9999 FEW045 FEW050CB SCT10032/23 Q1003
Loading
Personal Weather Stations






























Interactive Weather Map New forecast layout! Learn more

10-Day Weather Forecast

Advertisements
Track Severe Weather on mobile